Time;durP1;ratioP1;P1;durP2;ratioP2;P2;SDS_P1;SDS_P2;PMS_P1;PMS_P2;Temp;Humidity;BMP_temperature;BMP_pressure;BME280_temperature;BME280_humidity;BME280_pressure;Samples;Min_cycle;Max_cycle;Signal;HPM_P1;HPM_P2
2023/05/17 00:01:43;;;;;;;;;;;10.90;99.90;;;;;;5082988;28;20004;-73
2023/05/17 00:04:09;;;;;;;;;;;10.80;99.90;;;;;;5079162;28;20030;-73
2023/05/17 00:06:35;;;;;;;;;;;10.80;99.90;;;;;;5087507;28;19916;-73
2023/05/17 00:09:00;;;;;;;;;;;10.80;99.90;;;;;;5090398;28;19912;-74
2023/05/17 00:11:26;;;;;;;;;;;10.70;99.90;;;;;;5090253;28;20459;-73
2023/05/17 00:13:51;;;;;;;;;;;10.60;99.90;;;;;;5088631;28;19919;-73
2023/05/17 00:16:17;;;;;;;;;;;10.60;99.90;;;;;;5083968;28;20364;-73
2023/05/17 00:18:42;;;;;;;;;;;10.60;99.90;;;;;;5077830;28;20010;-73
2023/05/17 00:21:08;;;;;;;;;;;10.60;99.90;;;;;;5058249;28;19966;-73
2023/05/17 00:23:36;;;;;;;;;;;10.60;99.90;;;;;;5079351;28;20401;-73
2023/05/17 00:26:02;;;;;;;;;;;10.60;99.90;;;;;;5079624;28;19919;-73
2023/05/17 00:28:27;;;;;;;;;;;10.60;99.90;;;;;;5084597;28;20371;-73
2023/05/17 00:30:53;;;;;;;;;;;10.50;99.90;;;;;;5088086;28;19966;-73
2023/05/17 00:33:18;;;;;;;;;;;10.50;99.90;;;;;;5085999;28;19931;-73
2023/05/17 00:35:44;;;;;;;;;;;10.50;99.90;;;;;;5079542;28;20260;-73
2023/05/17 00:38:10;;;;;;;;;;;10.50;99.90;;;;;;5076791;28;19942;-73
2023/05/17 00:40:35;;;;;;;;;;;10.40;99.90;;;;;;5081216;28;19916;-73
2023/05/17 00:43:01;;;;;;;;;;;10.40;99.90;;;;;;5076959;28;19982;-73
2023/05/17 00:45:27;;;;;;;;;;;10.40;99.90;;;;;;5090170;28;19961;-73
2023/05/17 00:47:52;;;;;;;;;;;10.40;99.90;;;;;;5087725;28;19922;-73
2023/05/17 00:50:18;;;;;;;;;;;10.40;99.90;;;;;;5088312;28;20003;-73
2023/05/17 00:52:44;;;;;;;;;;;10.40;99.90;;;;;;5087670;28;19912;-73
2023/05/17 00:55:09;;;;;;;;;;;10.40;99.90;;;;;;5084212;28;20412;-73
2023/05/17 00:57:35;;;;;;;;;;;10.40;99.90;;;;;;5084345;28;19912;-73
2023/05/17 01:00:01;;;;;;;;;;;10.40;99.90;;;;;;5107198;27;19916;-73
2023/05/17 01:02:27;;;;;;;;;;;10.50;99.90;;;;;;5087654;28;20302;-73
2023/05/17 01:04:53;;;;;;;;;;;10.50;99.90;;;;;;5080269;28;19923;-73
2023/05/17 01:07:18;;;;;;;;;;;10.60;99.90;;;;;;5081453;28;19912;-73
2023/05/17 01:09:44;;;;;;;;;;;10.60;99.90;;;;;;5088975;28;19969;-73
2023/05/17 01:12:15;;;;;;;;;;;10.60;99.90;;;;;;5085801;28;19924;-73
2023/05/17 01:14:41;;;;;;;;;;;10.50;99.90;;;;;;5078174;28;19966;-73
2023/05/17 01:17:16;;;;;;;;;;;10.50;99.90;;;;;;5079124;28;19912;-73
2023/05/17 01:19:47;;;;;;;;;;;10.50;99.90;;;;;;5063627;28;19977;-73
2023/05/17 01:22:23;;;;;;;;;;;10.40;99.90;;;;;;5087238;28;19920;-74
2023/05/17 01:24:51;;;;;;;;;;;10.40;99.90;;;;;;5078498;28;19927;-74
2023/05/17 01:27:18;;;;;;;;;;;10.40;99.90;;;;;;5086908;28;19916;-74
2023/05/17 01:29:43;;;;;;;;;;;10.40;99.90;;;;;;5076801;28;19916;-74
2023/05/17 01:32:09;;;;;;;;;;;10.40;99.90;;;;;;5074141;28;20357;-74
2023/05/17 01:34:35;;;;;;;;;;;10.30;99.90;;;;;;5086075;28;20011;-74
2023/05/17 01:37:00;;;;;;;;;;;10.30;99.90;;;;;;5078946;28;20544;-74
2023/05/17 01:39:26;;;;;;;;;;;10.30;99.90;;;;;;5086545;28;19935;-74
2023/05/17 01:42:09;;;;;;;;;;;10.30;99.90;;;;;;5078063;28;19912;-74
2023/05/17 01:44:53;;;;;;;;;;;10.20;99.90;;;;;;5087743;28;19928;-74
2023/05/17 01:47:29;;;;;;;;;;;10.10;99.90;;;;;;5077734;28;20007;-74
2023/05/17 01:49:57;;;;;;;;;;;10.10;99.90;;;;;;5078483;28;19913;-74
2023/05/17 01:52:27;;;;;;;;;;;10.10;99.90;;;;;;5078475;28;19912;-74
2023/05/17 01:54:52;;;;;;;;;;;10.00;99.90;;;;;;5077714;28;19924;-74
2023/05/17 01:57:19;;;;;;;;;;;10.00;99.90;;;;;;5076668;28;20375;-74
2023/05/17 01:59:45;;;;;;;;;;;9.90;99.90;;;;;;5064512;28;20484;-74
2023/05/17 02:02:12;;;;;;;;;;;9.90;99.90;;;;;;5077647;28;19923;-74
2023/05/17 02:04:38;;;;;;;;;;;9.90;99.90;;;;;;5084689;28;19974;-74
2023/05/17 02:07:03;;;;;;;;;;;9.90;99.90;;;;;;5078538;28;19920;-74
2023/05/17 02:09:29;;;;;;;;;;;10.00;99.90;;;;;;5079389;28;19951;-74
2023/05/17 02:11:55;;;;;;;;;;;10.00;99.90;;;;;;5062794;28;19934;-75
2023/05/17 02:14:21;;;;;;;;;;;10.00;99.90;;;;;;5089312;28;20373;-76
2023/05/17 02:16:47;;;;;;;;;;;10.00;99.90;;;;;;5087388;28;19916;-74
2023/05/17 02:19:13;;;;;;;;;;;10.00;99.90;;;;;;5079174;28;20230;-74
2023/05/17 02:21:39;;;;;;;;;;;10.00;99.90;;;;;;5084463;28;19923;-74
2023/05/17 02:24:05;;;;;;;;;;;10.00;99.90;;;;;;5076575;28;20003;-74
2023/05/17 02:26:30;;;;;;;;;;;9.90;99.90;;;;;;5086585;28;19958;-73
2023/05/17 02:28:56;;;;;;;;;;;9.90;99.90;;;;;;5081106;28;19916;-74
2023/05/17 02:31:25;;;;;;;;;;;9.90;99.90;;;;;;5077611;28;19917;-74
2023/05/17 02:33:54;;;;;;;;;;;9.80;99.90;;;;;;5076888;28;19916;-74
2023/05/17 02:36:20;;;;;;;;;;;9.70;99.90;;;;;;5077190;28;20070;-74
2023/05/17 02:38:46;;;;;;;;;;;9.70;99.90;;;;;;5077628;28;19951;-74
2023/05/17 02:41:11;;;;;;;;;;;9.70;99.90;;;;;;5076853;28;19951;-74
2023/05/17 02:43:37;;;;;;;;;;;9.70;99.90;;;;;;5086452;28;19927;-74
2023/05/17 02:46:03;;;;;;;;;;;9.60;99.90;;;;;;5061521;28;19920;-73
2023/05/17 02:48:28;;;;;;;;;;;9.60;99.90;;;;;;5077206;28;19919;-73
2023/05/17 02:50:54;;;;;;;;;;;9.60;99.90;;;;;;5085698;28;19918;-74
2023/05/17 02:53:20;;;;;;;;;;;9.50;99.90;;;;;;5064829;28;19912;-73
2023/05/17 02:55:46;;;;;;;;;;;9.50;99.90;;;;;;5067899;28;19967;-73
2023/05/17 02:58:11;;;;;;;;;;;9.50;99.90;;;;;;5079123;28;19916;-73
2023/05/17 03:00:37;;;;;;;;;;;9.40;99.90;;;;;;5082735;28;19916;-73
2023/05/17 03:03:05;;;;;;;;;;;9.40;99.90;;;;;;5078260;28;19916;-73
2023/05/17 03:05:32;;;;;;;;;;;9.40;99.90;;;;;;5081279;28;20558;-73
2023/05/17 03:07:57;;;;;;;;;;;9.30;99.90;;;;;;5062265;28;19916;-73
2023/05/17 03:10:23;;;;;;;;;;;9.40;99.90;;;;;;5083431;28;19923;-73
2023/05/17 03:12:48;;;;;;;;;;;9.30;99.90;;;;;;5091656;28;19970;-73
2023/05/17 03:15:14;;;;;;;;;;;9.30;99.90;;;;;;5082189;28;19923;-73
2023/05/17 03:17:40;;;;;;;;;;;9.30;99.90;;;;;;5089090;28;20348;-73
2023/05/17 03:20:06;;;;;;;;;;;9.30;99.90;;;;;;5062014;28;19920;-73
2023/05/17 03:22:32;;;;;;;;;;;9.20;99.90;;;;;;5081510;28;19912;-73
2023/05/17 03:24:57;;;;;;;;;;;9.30;99.90;;;;;;5080457;28;19916;-73
2023/05/17 03:27:23;;;;;;;;;;;9.30;99.90;;;;;;5082329;28;19923;-73
2023/05/17 03:29:49;;;;;;;;;;;9.30;99.90;;;;;;5080400;28;19948;-73
2023/05/17 03:32:14;;;;;;;;;;;9.30;99.90;;;;;;5088803;28;20045;-73
2023/05/17 03:34:40;;;;;;;;;;;9.40;99.90;;;;;;5076997;28;19938;-73
2023/05/17 03:37:05;;;;;;;;;;;9.40;99.90;;;;;;5080199;28;20299;-73
2023/05/17 03:39:31;;;;;;;;;;;9.40;99.90;;;;;;5080504;28;19912;-73
2023/05/17 03:41:56;;;;;;;;;;;9.40;99.90;;;;;;5082662;28;20011;-74
2023/05/17 03:44:22;;;;;;;;;;;9.40;99.90;;;;;;5078242;28;19920;-73
2023/05/17 03:46:48;;;;;;;;;;;9.40;99.90;;;;;;5088389;28;19923;-73
2023/05/17 03:49:13;;;;;;;;;;;9.40;99.90;;;;;;5080715;28;19970;-73
2023/05/17 03:51:39;;;;;;;;;;;9.40;99.90;;;;;;5082110;28;19912;-73
2023/05/17 03:54:05;;;;;;;;;;;9.40;99.90;;;;;;5081486;28;20048;-73
2023/05/17 03:56:31;;;;;;;;;;;9.40;99.90;;;;;;5088803;28;19959;-73
2023/05/17 03:58:56;;;;;;;;;;;9.40;99.90;;;;;;5089244;28;19920;-73
2023/05/17 04:01:22;;;;;;;;;;;9.30;99.90;;;;;;5080551;28;19912;-73
2023/05/17 04:03:47;;;;;;;;;;;9.30;99.90;;;;;;5086279;28;19920;-73
2023/05/17 04:06:13;;;;;;;;;;;9.30;99.90;;;;;;5081564;28;19999;-73
2023/05/17 04:08:39;;;;;;;;;;;9.30;99.90;;;;;;5082968;28;19911;-73
2023/05/17 04:11:14;;;;;;;;;;;9.30;99.90;;;;;;5088980;28;19920;-74
2023/05/17 04:13:40;;;;;;;;;;;9.20;99.90;;;;;;5081216;28;19920;-73
2023/05/17 04:16:07;;;;;;;;;;;9.20;99.90;;;;;;5068749;28;19976;-73
2023/05/17 04:18:36;;;;;;;;;;;9.20;99.90;;;;;;5071956;28;20325;-73
2023/05/17 04:21:02;;;;;;;;;;;9.20;99.90;;;;;;5089333;28;20388;-73
2023/05/17 04:23:28;;;;;;;;;;;9.30;99.90;;;;;;5089583;28;20003;-74
2023/05/17 04:25:55;;;;;;;;;;;9.30;99.90;;;;;;5080851;28;19912;-74
2023/05/17 04:28:21;;;;;;;;;;;9.40;99.90;;;;;;5089911;28;19998;-74
2023/05/17 04:30:46;;;;;;;;;;;9.40;99.90;;;;;;5082012;28;20466;-73
2023/05/17 04:33:12;;;;;;;;;;;9.50;99.90;;;;;;5088345;28;19972;-74
2023/05/17 04:35:40;;;;;;;;;;;9.50;99.90;;;;;;5068882;28;21575;-74
2023/05/17 04:38:06;;;;;;;;;;;9.50;99.90;;;;;;5084964;28;20049;-74
2023/05/17 04:40:32;;;;;;;;;;;9.60;99.90;;;;;;5086397;28;19999;-74
2023/05/17 04:42:57;;;;;;;;;;;9.60;99.90;;;;;;5107924;27;19965;-73
2023/05/17 04:45:23;;;;;;;;;;;9.50;99.90;;;;;;5089553;28;19920;-74
2023/05/17 04:47:49;;;;;;;;;;;9.50;99.90;;;;;;5087202;28;21800;-74
2023/05/17 04:50:16;;;;;;;;;;;9.50;99.90;;;;;;5081998;28;19966;-74
2023/05/17 04:52:41;;;;;;;;;;;9.60;99.90;;;;;;5079087;28;19920;-74
2023/05/17 04:55:11;;;;;;;;;;;9.60;99.90;;;;;;5085084;28;19920;-74
2023/05/17 04:57:37;;;;;;;;;;;9.60;99.90;;;;;;5088405;28;20001;-74
2023/05/17 05:00:06;;;;;;;;;;;9.60;99.90;;;;;;5080024;28;20788;-74
2023/05/17 05:02:32;;;;;;;;;;;9.70;99.90;;;;;;5084763;28;19920;-74
2023/05/17 05:04:57;;;;;;;;;;;9.70;99.90;;;;;;5086603;28;19920;-74
2023/05/17 05:07:23;;;;;;;;;;;9.70;99.90;;;;;;5077934;28;19923;-74
2023/05/17 05:09:49;;;;;;;;;;;9.70;99.90;;;;;;5077897;28;19992;-74
2023/05/17 05:12:17;;;;;;;;;;;9.70;99.90;;;;;;5063092;28;19921;-74
2023/05/17 05:14:42;;;;;;;;;;;9.70;99.90;;;;;;5086140;28;19919;-74
2023/05/17 05:17:08;;;;;;;;;;;9.70;99.90;;;;;;5076763;28;20295;-74
2023/05/17 05:19:34;;;;;;;;;;;9.80;99.90;;;;;;5084210;28;19927;-75
2023/05/17 05:21:59;;;;;;;;;;;9.80;99.90;;;;;;5063411;28;19928;-74
2023/05/17 05:24:25;;;;;;;;;;;9.80;99.90;;;;;;5086310;28;19923;-74
2023/05/17 05:26:50;;;;;;;;;;;9.80;99.90;;;;;;5080574;28;20059;-74
2023/05/17 05:29:17;;;;;;;;;;;9.80;99.90;;;;;;5084256;28;20308;-74
2023/05/17 05:31:42;;;;;;;;;;;9.80;99.90;;;;;;5077432;28;19972;-74
2023/05/17 05:34:08;;;;;;;;;;;9.80;99.90;;;;;;5084129;28;20493;-73
2023/05/17 05:36:33;;;;;;;;;;;9.80;99.90;;;;;;5081959;28;19936;-74
2023/05/17 05:38:59;;;;;;;;;;;9.90;99.90;;;;;;5077774;28;19961;-73
2023/05/17 05:41:24;;;;;;;;;;;10.00;99.90;;;;;;5089177;28;19923;-73
2023/05/17 05:43:50;;;;;;;;;;;10.00;99.90;;;;;;5087720;28;19960;-73
2023/05/17 05:46:16;;;;;;;;;;;10.00;99.90;;;;;;5086928;28;19920;-73
2023/05/17 05:48:42;;;;;;;;;;;9.90;99.90;;;;;;5087449;28;19916;-73
2023/05/17 05:51:07;;;;;;;;;;;10.00;99.90;;;;;;5080300;28;20729;-73
2023/05/17 05:53:33;;;;;;;;;;;10.10;99.90;;;;;;5087120;28;19915;-73
2023/05/17 05:55:59;;;;;;;;;;;10.20;99.90;;;;;;5082366;28;20304;-73
2023/05/17 05:58:24;;;;;;;;;;;10.20;99.90;;;;;;5087841;28;19919;-73
2023/05/17 06:00:50;;;;;;;;;;;10.20;99.90;;;;;;5077357;28;20432;-73
2023/05/17 06:03:16;;;;;;;;;;;10.30;99.90;;;;;;5085296;28;19912;-73
2023/05/17 06:05:41;;;;;;;;;;;10.20;99.90;;;;;;5085941;28;19916;-73
2023/05/17 06:08:07;;;;;;;;;;;10.20;99.90;;;;;;5059402;28;19923;-74
2023/05/17 06:10:33;;;;;;;;;;;10.20;99.90;;;;;;5081017;28;20117;-74
2023/05/17 06:12:58;;;;;;;;;;;10.40;99.90;;;;;;5084586;28;20250;-73
2023/05/17 06:15:25;;;;;;;;;;;10.40;99.90;;;;;;5076908;28;19916;-73
2023/05/17 06:17:51;;;;;;;;;;;10.50;99.90;;;;;;5076153;28;19916;-73
2023/05/17 06:20:17;;;;;;;;;;;10.50;99.90;;;;;;5078481;28;19922;-72
2023/05/17 06:22:42;;;;;;;;;;;10.50;99.90;;;;;;5060532;28;19920;-73
2023/05/17 06:25:09;;;;;;;;;;;10.60;99.90;;;;;;5062660;28;20028;-74
2023/05/17 06:27:35;;;;;;;;;;;10.50;99.80;;;;;;5084674;28;19920;-73
2023/05/17 06:30:01;;;;;;;;;;;10.50;99.90;;;;;;5081561;28;19920;-73
2023/05/17 06:32:26;;;;;;;;;;;10.50;99.90;;;;;;5082104;28;19919;-73
2023/05/17 06:34:52;;;;;;;;;;;10.60;99.90;;;;;;5083980;28;19915;-73
2023/05/17 06:37:18;;;;;;;;;;;10.60;99.90;;;;;;5079260;28;19913;-73
2023/05/17 06:39:43;;;;;;;;;;;10.60;99.90;;;;;;5067008;28;20942;-73
2023/05/17 06:42:09;;;;;;;;;;;10.70;99.90;;;;;;5062999;28;20278;-73
2023/05/17 06:44:34;;;;;;;;;;;10.70;99.90;;;;;;5080547;28;19916;-73
2023/05/17 06:47:00;;;;;;;;;;;10.80;99.90;;;;;;5083465;28;19920;-73
2023/05/17 06:49:25;;;;;;;;;;;10.80;98.90;;;;;;5091091;28;20018;-73
2023/05/17 06:51:53;;;;;;;;;;;10.70;99.30;;;;;;5082260;28;20445;-73
2023/05/17 06:54:19;;;;;;;;;;;10.80;98.30;;;;;;5082169;28;19915;-73
2023/05/17 06:56:45;;;;;;;;;;;10.70;98.00;;;;;;5084214;28;20031;-73
2023/05/17 06:59:10;;;;;;;;;;;10.70;97.80;;;;;;5087199;28;19916;-72
2023/05/17 07:01:36;;;;;;;;;;;10.70;96.90;;;;;;5080002;28;20449;-74
2023/05/17 07:04:01;;;;;;;;;;;10.70;96.60;;;;;;5077246;28;19976;-74
2023/05/17 07:06:27;;;;;;;;;;;10.60;96.40;;;;;;5080856;28;20296;-73
2023/05/17 07:08:53;;;;;;;;;;;10.60;96.20;;;;;;5065804;28;19933;-72
2023/05/17 07:11:18;;;;;;;;;;;10.70;95.50;;;;;;5089557;28;19915;-72
2023/05/17 07:13:44;;;;;;;;;;;10.70;95.90;;;;;;5084319;28;19981;-72
2023/05/17 07:16:10;;;;;;;;;;;10.70;95.90;;;;;;5086641;28;19916;-74
2023/05/17 07:18:35;;;;;;;;;;;10.80;95.70;;;;;;5090287;28;19908;-74
2023/05/17 07:21:01;;;;;;;;;;;10.80;95.40;;;;;;5080645;28;19982;-74
2023/05/17 07:23:26;;;;;;;;;;;10.80;95.50;;;;;;5086957;28;20288;-74
2023/05/17 07:25:52;;;;;;;;;;;10.90;95.20;;;;;;5075083;28;19912;-74
2023/05/17 07:28:17;;;;;;;;;;;10.90;95.60;;;;;;5080133;28;20381;-73
2023/05/17 07:30:43;;;;;;;;;;;11.00;95.10;;;;;;5081015;28;19927;-74
2023/05/17 07:33:09;;;;;;;;;;;11.00;94.90;;;;;;5066047;28;19919;-73
2023/05/17 07:35:34;;;;;;;;;;;11.00;95.10;;;;;;5081196;28;20015;-74
2023/05/17 07:38:00;;;;;;;;;;;11.00;95.20;;;;;;5081621;28;19916;-73
2023/05/17 07:40:26;;;;;;;;;;;11.10;95.50;;;;;;5063434;28;20430;-74
2023/05/17 07:42:51;;;;;;;;;;;11.10;95.70;;;;;;5083445;28;20339;-73
2023/05/17 07:45:17;;;;;;;;;;;11.10;94.80;;;;;;5080801;28;19916;-74
2023/05/17 07:47:43;;;;;;;;;;;11.10;94.10;;;;;;5081989;28;19926;-74
2023/05/17 07:50:09;;;;;;;;;;;11.20;94.10;;;;;;5090338;28;19919;-75
2023/05/17 07:52:34;;;;;;;;;;;11.10;94.30;;;;;;5080269;28;20006;-74
2023/05/17 07:55:00;;;;;;;;;;;11.10;94.60;;;;;;5088500;28;20355;-74
2023/05/17 07:57:26;;;;;;;;;;;11.00;94.30;;;;;;5086955;28;20555;-74
2023/05/17 07:59:52;;;;;;;;;;;10.90;94.90;;;;;;5081122;28;19950;-74
2023/05/17 08:02:17;;;;;;;;;;;10.80;94.60;;;;;;5081811;28;19947;-75
2023/05/17 08:04:44;;;;;;;;;;;10.90;94.80;;;;;;5065792;28;20254;-74
2023/05/17 08:07:09;;;;;;;;;;;11.00;94.00;;;;;;5086192;28;20417;-75
2023/05/17 08:09:35;;;;;;;;;;;11.20;94.30;;;;;;5091339;28;19908;-73
2023/05/17 08:12:01;;;;;;;;;;;11.20;94.10;;;;;;5078368;28;19916;-74
2023/05/17 08:14:26;;;;;;;;;;;11.20;93.90;;;;;;5089504;28;19951;-74
2023/05/17 08:16:52;;;;;;;;;;;11.20;93.80;;;;;;5065277;28;19923;-73
2023/05/17 08:19:18;;;;;;;;;;;11.10;94.00;;;;;;5080874;28;19909;-73
2023/05/17 08:21:45;;;;;;;;;;;11.10;93.90;;;;;;5081225;28;20249;-73
2023/05/17 08:24:11;;;;;;;;;;;11.10;93.90;;;;;;5076802;28;20011;-73
2023/05/17 08:26:36;;;;;;;;;;;11.00;94.40;;;;;;5086392;28;20372;-74
2023/05/17 08:29:03;;;;;;;;;;;11.00;94.90;;;;;;5088724;28;19919;-73
2023/05/17 08:31:30;;;;;;;;;;;11.20;94.60;;;;;;5081099;28;19942;-74
2023/05/17 08:33:55;;;;;;;;;;;11.20;94.10;;;;;;5090921;28;19915;-74
2023/05/17 08:36:21;;;;;;;;;;;11.30;94.10;;;;;;5079738;28;20283;-74
2023/05/17 08:38:47;;;;;;;;;;;11.40;93.30;;;;;;5088331;28;19919;-74
2023/05/17 08:41:12;;;;;;;;;;;11.50;93.40;;;;;;5091644;28;19961;-74
2023/05/17 08:43:38;;;;;;;;;;;11.60;93.10;;;;;;5083479;28;20318;-75
2023/05/17 08:46:04;;;;;;;;;;;11.60;93.60;;;;;;5081930;28;19938;-74
2023/05/17 08:48:30;;;;;;;;;;;11.60;93.90;;;;;;5087634;28;20004;-74
2023/05/17 08:50:56;;;;;;;;;;;11.70;93.20;;;;;;5064022;28;20313;-74
2023/05/17 08:53:23;;;;;;;;;;;11.70;92.80;;;;;;5085756;28;19912;-75
2023/05/17 08:55:49;;;;;;;;;;;11.70;92.30;;;;;;5078778;28;19915;-74
2023/05/17 08:58:18;;;;;;;;;;;11.70;92.00;;;;;;5079751;28;20015;-73
2023/05/17 09:00:45;;;;;;;;;;;11.70;92.60;;;;;;5068556;28;20249;-74
2023/05/17 09:03:13;;;;;;;;;;;11.70;92.60;;;;;;5081693;28;19916;-74
2023/05/17 09:05:38;;;;;;;;;;;11.80;92.80;;;;;;5080143;28;20243;-73
2023/05/17 09:08:04;;;;;;;;;;;11.80;92.20;;;;;;5088007;28;19920;-73
2023/05/17 09:10:30;;;;;;;;;;;11.80;92.80;;;;;;5079926;28;19920;-74
2023/05/17 09:12:56;;;;;;;;;;;12.00;92.30;;;;;;5082635;28;20003;-75
2023/05/17 09:15:22;;;;;;;;;;;12.00;91.70;;;;;;5088063;28;19966;-74
2023/05/17 09:17:52;;;;;;;;;;;12.00;91.40;;;;;;5085977;28;19915;-73
2023/05/17 09:20:22;;;;;;;;;;;12.00;91.60;;;;;;5080073;28;20013;-73
2023/05/17 09:22:49;;;;;;;;;;;12.00;91.80;;;;;;5090909;28;20276;-74
2023/05/17 09:25:18;;;;;;;;;;;12.00;91.90;;;;;;5080052;28;20007;-73
2023/05/17 09:27:43;;;;;;;;;;;12.00;92.70;;;;;;5078015;28;19927;-74
2023/05/17 09:30:09;;;;;;;;;;;12.10;92.60;;;;;;5090257;28;19908;-73
2023/05/17 09:32:35;;;;;;;;;;;12.10;93.00;;;;;;5079495;28;19961;-73
2023/05/17 09:35:01;;;;;;;;;;;12.10;93.20;;;;;;5079251;28;20014;-73
2023/05/17 09:37:28;;;;;;;;;;;12.10;93.70;;;;;;5087903;28;19912;-73
2023/05/17 09:39:54;;;;;;;;;;;12.00;93.80;;;;;;5079693;28;19920;-74
2023/05/17 09:42:25;;;;;;;;;;;11.90;93.90;;;;;;5062964;28;20021;-75
2023/05/17 09:44:56;;;;;;;;;;;11.80;93.80;;;;;;5066280;28;19920;-74
2023/05/17 09:47:25;;;;;;;;;;;11.80;92.90;;;;;;5088056;28;19916;-75
2023/05/17 09:49:51;;;;;;;;;;;11.80;92.40;;;;;;5081477;28;19908;-74
2023/05/17 09:52:19;;;;;;;;;;;11.90;92.00;;;;;;5064183;28;19909;-74
2023/05/17 09:54:54;;;;;;;;;;;11.90;91.80;;;;;;5080606;28;20000;-75
2023/05/17 09:57:20;;;;;;;;;;;12.10;96.00;;;;;;5079107;28;19912;-74
2023/05/17 09:59:46;;;;;;;;;;;13.00;93.50;;;;;;5089270;28;19908;-73
2023/05/17 10:02:16;;;;;;;;;;;12.90;90.70;;;;;;5091339;28;19951;-74
2023/05/17 10:04:43;;;;;;;;;;;12.90;90.60;;;;;;5081063;28;19924;-73
2023/05/17 10:07:09;;;;;;;;;;;12.90;90.10;;;;;;5092375;28;19927;-73
2023/05/17 10:09:36;;;;;;;;;;;12.80;86.40;;;;;;5083730;28;19916;-73
2023/05/17 10:12:02;;;;;;;;;;;12.70;87.60;;;;;;5082483;28;19924;-73
2023/05/17 10:14:32;;;;;;;;;;;12.80;86.50;;;;;;5092457;28;20361;-74
2023/05/17 10:16:58;;;;;;;;;;;12.90;86.60;;;;;;5083360;28;20004;-72
2023/05/17 10:19:24;;;;;;;;;;;12.80;86.90;;;;;;5113428;27;20367;-74
2023/05/17 10:21:51;;;;;;;;;;;12.80;88.20;;;;;;5091297;28;19920;-74
2023/05/17 10:24:18;;;;;;;;;;;12.70;87.80;;;;;;5092856;28;20292;-73
2023/05/17 10:26:44;;;;;;;;;;;12.70;88.10;;;;;;5091452;28;20383;-73
2023/05/17 10:29:10;;;;;;;;;;;12.80;89.80;;;;;;5082903;28;19919;-74
2023/05/17 10:31:36;;;;;;;;;;;12.60;90.30;;;;;;5090761;28;19952;-73
2023/05/17 10:34:04;;;;;;;;;;;12.60;89.80;;;;;;5081539;28;19912;-74
2023/05/17 10:36:30;;;;;;;;;;;12.70;89.60;;;;;;5081346;28;19992;-74
2023/05/17 10:38:55;;;;;;;;;;;12.80;90.00;;;;;;5089423;28;19912;-73
2023/05/17 10:41:23;;;;;;;;;;;13.00;89.00;;;;;;5083568;28;20374;-73
2023/05/17 10:43:49;;;;;;;;;;;13.00;90.10;;;;;;5082399;28;20295;-73
2023/05/17 10:46:15;;;;;;;;;;;13.10;90.80;;;;;;5091911;28;19930;-73
2023/05/17 10:48:41;;;;;;;;;;;13.30;90.50;;;;;;5065915;28;19915;-74
2023/05/17 10:51:07;;;;;;;;;;;13.40;90.50;;;;;;5083502;28;20032;-74
2023/05/17 10:53:32;;;;;;;;;;;13.30;90.20;;;;;;5064641;28;19945;-73
2023/05/17 10:55:58;;;;;;;;;;;13.30;91.40;;;;;;5090594;28;20268;-74
2023/05/17 10:58:28;;;;;;;;;;;13.40;91.00;;;;;;5080139;28;20086;-74
2023/05/17 11:00:54;;;;;;;;;;;13.50;90.20;;;;;;5068379;28;19919;-73
2023/05/17 11:03:29;;;;;;;;;;;13.50;89.70;;;;;;5083778;28;19927;-73
2023/05/17 11:06:05;;;;;;;;;;;13.40;90.50;;;;;;5065323;28;19922;-74
2023/05/17 11:08:31;;;;;;;;;;;13.10;91.00;;;;;;5091381;28;20033;-74
2023/05/17 11:11:07;;;;;;;;;;;13.00;91.50;;;;;;5080455;28;19939;-73
2023/05/17 11:13:33;;;;;;;;;;;13.10;92.00;;;;;;5088990;28;20056;-74
2023/05/17 11:16:06;;;;;;;;;;;13.40;91.60;;;;;;5087373;28;19925;-74
2023/05/17 11:18:45;;;;;;;;;;;13.40;91.10;;;;;;5080414;28;20458;-74
2023/05/17 11:21:12;;;;;;;;;;;13.50;90.60;;;;;;5083744;28;19961;-74
2023/05/17 11:23:38;;;;;;;;;;;13.50;90.30;;;;;;5090776;28;19912;-74
2023/05/17 11:26:18;;;;;;;;;;;14.00;89.50;;;;;;5066304;28;20310;-74
2023/05/17 11:28:44;;;;;;;;;;;15.20;87.90;;;;;;5089714;28;19934;-74
2023/05/17 11:31:10;;;;;;;;;;;17.50;80.60;;;;;;5090442;28;19912;-73
2023/05/17 11:33:43;;;;;;;;;;;19.70;71.30;;;;;;5089703;28;19912;-74
2023/05/17 11:36:18;;;;;;;;;;;21.10;62.70;;;;;;5081001;28;19908;-73
2023/05/17 11:38:47;;;;;;;;;;;20.80;59.70;;;;;;5081983;28;19991;-74
2023/05/17 11:41:17;;;;;;;;;;;20.90;58.50;;;;;;5083432;28;19919;-73
2023/05/17 11:43:47;;;;;;;;;;;20.30;57.90;;;;;;5089780;28;19912;-73
2023/05/17 11:46:20;;;;;;;;;;;18.90;60.40;;;;;;5082310;28;19939;-74
2023/05/17 11:48:47;;;;;;;;;;;17.60;63.70;;;;;;5064446;28;20364;-73
2023/05/17 11:51:15;;;;;;;;;;;16.30;67.70;;;;;;5067075;28;20261;-74
2023/05/17 11:53:41;;;;;;;;;;;15.70;69.20;;;;;;5081649;28;19912;-73
2023/05/17 11:56:08;;;;;;;;;;;15.50;71.10;;;;;;5083766;28;19969;-73
2023/05/17 11:58:33;;;;;;;;;;;16.20;70.40;;;;;;5075012;28;19927;-74
2023/05/17 12:00:59;;;;;;;;;;;17.10;68.70;;;;;;5089151;28;19916;-74
2023/05/17 12:03:25;;;;;;;;;;;17.90;64.60;;;;;;5087281;28;20303;-74
2023/05/17 12:06:00;;;;;;;;;;;18.30;62.50;;;;;;5090230;28;19947;-75
2023/05/17 12:08:26;;;;;;;;;;;18.20;62.20;;;;;;5080161;28;19912;-74
2023/05/17 12:10:52;;;;;;;;;;;17.70;62.10;;;;;;5088417;28;19916;-74
2023/05/17 12:13:18;;;;;;;;;;;17.30;63.60;;;;;;5087943;28;20037;-74
2023/05/17 12:15:46;;;;;;;;;;;17.50;63.80;;;;;;5089391;28;19920;-73
2023/05/17 12:18:12;;;;;;;;;;;17.70;63.50;;;;;;5086103;28;19916;-73
2023/05/17 12:20:38;;;;;;;;;;;17.20;62.30;;;;;;5074668;28;19973;-74
2023/05/17 12:23:04;;;;;;;;;;;17.00;64.90;;;;;;5087177;28;19916;-74
2023/05/17 12:25:29;;;;;;;;;;;16.50;65.40;;;;;;5079402;28;20003;-74
2023/05/17 12:28:14;;;;;;;;;;;16.10;65.80;;;;;;5072176;28;20360;-74
2023/05/17 12:30:40;;;;;;;;;;;15.80;68.40;;;;;;5077983;28;19919;-74
2023/05/17 12:33:06;;;;;;;;;;;15.20;69.40;;;;;;5070230;28;19916;-74
2023/05/17 12:35:32;;;;;;;;;;;15.00;70.30;;;;;;5081978;28;19920;-73
2023/05/17 12:37:58;;;;;;;;;;;15.80;70.30;;;;;;5085244;28;19912;-74
2023/05/17 12:40:23;;;;;;;;;;;16.30;68.20;;;;;;5086201;28;19969;-74
2023/05/17 12:42:49;;;;;;;;;;;16.80;66.60;;;;;;5080289;28;19920;-74
2023/05/17 12:45:15;;;;;;;;;;;16.60;65.60;;;;;;5080217;28;20418;-75
2023/05/17 12:47:42;;;;;;;;;;;16.40;65.30;;;;;;5086844;28;20026;-74
2023/05/17 12:50:08;;;;;;;;;;;15.70;65.20;;;;;;5077511;28;19920;-75
2023/05/17 12:52:37;;;;;;;;;;;15.60;65.70;;;;;;5082535;28;19912;-75
2023/05/17 12:55:03;;;;;;;;;;;16.80;63.30;;;;;;5076776;28;20280;-76
2023/05/17 12:57:29;;;;;;;;;;;18.20;60.90;;;;;;5084147;28;19972;-75
2023/05/17 12:59:55;;;;;;;;;;;18.60;58.40;;;;;;5073245;28;20294;-74
2023/05/17 13:02:21;;;;;;;;;;;18.30;59.00;;;;;;5072562;28;19934;-74
2023/05/17 13:04:46;;;;;;;;;;;18.00;60.40;;;;;;5084007;28;19916;-74
2023/05/17 13:07:19;;;;;;;;;;;17.90;60.00;;;;;;5081999;28;19912;-74
2023/05/17 13:09:47;;;;;;;;;;;17.10;60.40;;;;;;5085002;28;20284;-75
2023/05/17 13:12:17;;;;;;;;;;;16.20;61.90;;;;;;5084189;28;19912;-74
2023/05/17 13:14:44;;;;;;;;;;;15.90;63.60;;;;;;5084890;28;19916;-74
2023/05/17 13:17:12;;;;;;;;;;;15.80;64.30;;;;;;5077149;28;19916;-73
2023/05/17 13:19:38;;;;;;;;;;;16.30;64.50;;;;;;5086434;28;19966;-72
2023/05/17 13:22:04;;;;;;;;;;;16.20;64.40;;;;;;5077968;28;19927;-72
2023/05/17 13:24:32;;;;;;;;;;;15.90;66.20;;;;;;5069785;28;20305;-74
2023/05/17 13:26:58;;;;;;;;;;;15.40;66.40;;;;;;5070242;28;19916;-75
2023/05/17 13:29:23;;;;;;;;;;;15.10;67.80;;;;;;5080080;28;19923;-75
2023/05/17 13:31:49;;;;;;;;;;;14.80;67.70;;;;;;5076448;28;20062;-75
2023/05/17 13:34:15;;;;;;;;;;;15.10;68.50;;;;;;5083098;28;19973;-75
2023/05/17 13:36:41;;;;;;;;;;;15.60;65.10;;;;;;5075357;28;20007;-73
2023/05/17 13:39:06;;;;;;;;;;;15.90;64.40;;;;;;5089068;28;20399;-72
2023/05/17 13:41:32;;;;;;;;;;;15.70;63.80;;;;;;5086389;28;20483;-71
2023/05/17 13:43:58;;;;;;;;;;;15.60;65.20;;;;;;5084453;28;19970;-74
2023/05/17 13:46:23;;;;;;;;;;;15.20;67.00;;;;;;5076511;28;20415;-73
2023/05/17 13:48:49;;;;;;;;;;;14.80;69.30;;;;;;5077708;28;19967;-73
2023/05/17 13:51:15;;;;;;;;;;;14.40;70.80;;;;;;5085275;28;19916;-73
2023/05/17 13:53:42;;;;;;;;;;;14.40;71.40;;;;;;5083828;28;20056;-75
2023/05/17 13:56:08;;;;;;;;;;;14.30;71.30;;;;;;5077010;28;20383;-74
2023/05/17 13:58:34;;;;;;;;;;;14.50;71.70;;;;;;5081706;28;20416;-74
2023/05/17 14:00:59;;;;;;;;;;;14.90;68.80;;;;;;5079789;28;20010;-74
2023/05/17 14:03:25;;;;;;;;;;;16.10;66.10;;;;;;5078481;28;19919;-73
2023/05/17 14:05:52;;;;;;;;;;;16.60;64.20;;;;;;5077437;28;20445;-77
2023/05/17 14:08:18;;;;;;;;;;;16.10;64.30;;;;;;5072689;28;20284;-74
2023/05/17 14:10:44;;;;;;;;;;;15.80;65.40;;;;;;5071140;28;19969;-73
2023/05/17 14:13:10;;;;;;;;;;;15.30;67.40;;;;;;5080746;28;19908;-72
2023/05/17 14:15:38;;;;;;;;;;;15.10;68.60;;;;;;5081031;28;20395;-73
2023/05/17 14:18:04;;;;;;;;;;;14.90;69.00;;;;;;5057329;28;19916;-72